Time;durP1;ratioP1;P1;durP2;ratioP2;P2;SDS_P1;SDS_P2;PMS_P1;PMS_P2;Temp;Humidity;BMP_temperature;BMP_pressure;BME280_temperature;BME280_humidity;BME280_pressure;Samples;Min_cycle;Max_cycle;Signal;HPM_P1;HPM_P2
2024/02/21 00:05:24;;;;;;;10.9;5.2;;;;;;;5.24;88.63;;;;;
2024/02/21 00:15:24;;;;;;;10.9;5.2;;;;;;;5.03;89.08;;;;;
2024/02/21 00:26:25;;;;;;;10.9;5.2;;;;;;;4.81;89.25;;;;;
2024/02/21 00:36:24;;;;;;;11.8;6.8;;;;;;;4.91;90.35;;;;;
2024/02/21 00:47:24;;;;;;;11.8;6.8;;;;;;;5.05;90.26;;;;;
2024/02/21 00:57:24;;;;;;;11.8;6.8;;;;;;;4.84;88.99;;;;;
2024/02/21 01:07:24;;;;;;;13.2;6.7;;;;;;;4.62;88.83;;;;;
2024/02/21 01:18:24;;;;;;;13.2;6.7;;;;;;;4.42;88.98;;;;;
2024/02/21 01:28:24;;;;;;;13.2;6.7;;;;;;;4.49;89.33;;;;;
2024/02/21 01:38:24;;;;;;;9;4.3;;;;;;;4.52;89.34;;;;;
2024/02/21 01:48:24;;;;;;;9;4.3;;;;;;;4.64;89.06;;;;;
2024/02/21 01:59:24;;;;;;;9;4.3;;;;;;;4.56;89.47;;;;;
2024/02/21 02:09:24;;;;;;;12.6;4.5;;;;;;;4.61;89.92;;;;;
2024/02/21 02:20:24;;;;;;;12.6;4.5;;;;;;;4.68;89.74;;;;;
2024/02/21 02:30:24;;;;;;;12.6;4.5;;;;;;;4.77;89.38;;;;;
2024/02/21 02:40:24;;;;;;;11.9;5.1;;;;;;;4.81;89.2;;;;;
2024/02/21 02:50:24;;;;;;;11.9;5.1;;;;;;;4.69;89.21;;;;;
2024/02/21 03:00:24;;;;;;;11.9;5.1;;;;;;;4.87;88.92;;;;;
2024/02/21 03:10:24;;;;;;;7.6;4.2;;;;;;;4.8;89;;;;;
2024/02/21 03:21:24;;;;;;;7.6;4.2;;;;;;;4.99;88.57;;;;;
2024/02/21 03:32:24;;;;;;;7.8;4.1;;;;;;;5.11;88.07;;;;;
2024/02/21 03:42:25;;;;;;;7.8;4.1;;;;;;;5.24;87.67;;;;;
2024/02/21 03:52:24;;;;;;;7.8;4.1;;;;;;;5.23;87.13;;;;;
2024/02/21 04:02:24;;;;;;;7.6;3.8;;;;;;;5.32;86.81;;;;;
2024/02/21 04:12:25;;;;;;;7.6;3.8;;;;;;;5.23;86.71;;;;;
2024/02/21 04:23:24;;;;;;;7.6;3.8;;;;;;;5.15;86.78;;;;;
2024/02/21 04:34:24;;;;;;;14;4.1;;;;;;;5.12;86.45;;;;;
2024/02/21 04:44:24;;;;;;;14;4.1;;;;;;;5.06;86.86;;;;;
2024/02/21 04:54:24;;;;;;;14;4.1;;;;;;;4.87;87.32;;;;;
2024/02/21 05:05:24;;;;;;;9.9;4.5;;;;;;;4.92;87.72;;;;;
2024/02/21 05:15:24;;;;;;;9.9;4.5;;;;;;;5.05;87.68;;;;;
2024/02/21 05:25:24;;;;;;;9.9;4.5;;;;;;;5.04;87.42;;;;;
2024/02/21 05:36:24;;;;;;;7.7;4;;;;;;;5.03;87.18;;;;;
2024/02/21 05:46:24;;;;;;;7.7;4;;;;;;;5.17;86.78;;;;;
2024/02/21 05:57:24;;;;;;;7.7;4;;;;;;;5.23;86.31;;;;;
2024/02/21 06:07:24;;;;;;;6.4;2.9;;;;;;;5.2;86.04;;;;;
2024/02/21 06:18:24;;;;;;;6.4;2.9;;;;;;;5.44;86.35;;;;;
2024/02/21 06:29:24;;;;;;;6.4;2.9;;;;;;;5.45;84.81;;;;;
2024/02/21 06:40:24;;;;;;;8.1;3.2;;;;;;;5.47;84.97;;;;;
2024/02/21 06:50:24;;;;;;;8.1;3.2;;;;;;;5.34;84.61;;;;;
2024/02/21 07:01:24;;;;;;;5.5;2.9;;;;;;;5.36;84.67;;;;;
2024/02/21 07:12:24;;;;;;;5.5;2.9;;;;;;;5.42;84.4;;;;;
2024/02/21 07:23:24;;;;;;;5.5;2.9;;;;;;;5.7;83.79;;;;;
2024/02/21 07:34:24;;;;;;;5.8;3.1;;;;;;;6.04;82.67;;;;;
2024/02/21 07:45:24;;;;;;;5.8;3.1;;;;;;;6.61;81.32;;;;;
2024/02/21 07:55:24;;;;;;;5.8;3.1;;;;;;;6.95;79.68;;;;;
2024/02/21 08:05:24;;;;;;;8.5;3.2;;;;;;;7.5;78.2;;;;;
2024/02/21 08:15:28;;;;;;;8.5;3.2;;;;;;;8.13;76.5;;;;;
2024/02/21 08:26:27;;;;;;;8.5;3.2;;;;;;;8.11;75;;;;;
2024/02/21 08:37:24;;;;;;;8.5;3.6;;;;;;;8.43;72.94;;;;;
2024/02/21 08:47:24;;;;;;;8.5;3.6;;;;;;;9.02;72.6;;;;;
2024/02/21 08:58:26;;;;;;;8.5;3.6;;;;;;;9.05;70.64;;;;;
2024/02/21 09:08:24;;;;;;;8.2;3.3;;;;;;;9.19;69.62;;;;;
2024/02/21 09:18:24;;;;;;;8.2;3.3;;;;;;;9.06;69.14;;;;;
2024/02/21 09:29:24;;;;;;;8.2;3.3;;;;;;;9.25;70.3;;;;;
2024/02/21 09:39:25;;;;;;;7.5;3.6;;;;;;;9.31;69.44;;;;;
2024/02/21 09:50:24;;;;;;;7.5;3.6;;;;;;;9.63;68.4;;;;;
2024/02/21 10:01:24;;;;;;;6.9;4;;;;;;;9.91;67.31;;;;;
2024/02/21 10:11:24;;;;;;;6.9;4;;;;;;;9.91;66.52;;;;;
2024/02/21 10:21:24;;;;;;;6.9;4;;;;;;;10.46;65.71;;;;;
2024/02/21 10:32:26;;;;;;;6.8;3.7;;;;;;;10.43;66.72;;;;;
2024/02/21 10:42:24;;;;;;;6.8;3.7;;;;;;;10.8;64.58;;;;;
2024/02/21 10:52:24;;;;;;;6.8;3.7;;;;;;;10.86;64.2;;;;;
2024/02/21 11:03:24;;;;;;;8.7;3;;;;;;;10.8;62.47;;;;;
2024/02/21 11:13:24;;;;;;;8.7;3;;;;;;;11.14;65.17;;;;;
2024/02/21 11:23:24;;;;;;;8.7;3;;;;;;;10.79;63.16;;;;;
2024/02/21 11:33:24;;;;;;;7.4;4.3;;;;;;;10.83;63.82;;;;;
2024/02/21 11:44:24;;;;;;;7.4;4.3;;;;;;;10.94;64.49;;;;;
2024/02/21 11:54:24;;;;;;;7.4;4.3;;;;;;;11.16;64.01;;;;;
2024/02/21 12:05:27;;;;;;;5.9;3.6;;;;;;;11.3;63.19;;;;;
2024/02/21 12:15:24;;;;;;;5.9;3.6;;;;;;;11.34;64.19;;;;;
2024/02/21 12:26:24;;;;;;;5.9;3.6;;;;;;;11.02;64.42;;;;;
2024/02/21 12:37:24;;;;;;;9.3;4.6;;;;;;;10.74;62.79;;;;;
2024/02/21 12:47:26;;;;;;;9.3;4.6;;;;;;;10.65;63.24;;;;;
2024/02/21 12:57:24;;;;;;;9.3;4.6;;;;;;;10.74;63.44;;;;;
2024/02/21 13:08:24;;;;;;;8.2;4.1;;;;;;;10.64;63.34;;;;;
2024/02/21 13:19:24;;;;;;;8.2;4.1;;;;;;;10.14;64.08;;;;;
2024/02/21 13:29:24;;;;;;;8.2;4.1;;;;;;;9.93;65.86;;;;;
2024/02/21 13:40:25;;;;;;;8.3;4.1;;;;;;;9.69;67.87;;;;;
2024/02/21 13:50:24;;;;;;;8.3;4.1;;;;;;;9.63;69.63;;;;;
2024/02/21 14:00:25;;;;;;;8.3;4.1;;;;;;;9.52;72.3;;;;;
2024/02/21 14:11:24;;;;;;;6;3.6;;;;;;;9.08;71.66;;;;;
2024/02/21 14:21:24;;;;;;;6;3.6;;;;;;;8.86;72.31;;;;;
2024/02/21 14:32:24;;;;;;;7.3;4.1;;;;;;;8.8;73.46;;;;;
2024/02/21 14:42:25;;;;;;;7.3;4.1;;;;;;;8.63;74.66;;;;;
2024/02/21 14:52:24;;;;;;;7.3;4.1;;;;;;;8.69;76.09;;;;;
2024/02/21 15:02:24;;;;;;;6.9;3.5;;;;;;;8.57;76.95;;;;;
2024/02/21 15:13:24;;;;;;;6.9;3.5;;;;;;;8.36;76.24;;;;;
2024/02/21 15:23:25;;;;;;;6.9;3.5;;;;;;;8.14;76.93;;;;;
2024/02/21 15:33:26;;;;;;;8.8;3.2;;;;;;;8.08;76.57;;;;;
2024/02/21 15:44:24;;;;;;;8.8;3.2;;;;;;;8.03;77.05;;;;;
2024/02/21 15:54:27;;;;;;;8.8;3.2;;;;;;;7.93;76.36;;;;;
2024/02/21 16:04:24;;;;;;;7.8;3.4;;;;;;;7.69;76.98;;;;;
2024/02/21 16:14:26;;;;;;;7.8;3.4;;;;;;;7.56;78.07;;;;;
2024/02/21 16:24:24;;;;;;;7.8;3.4;;;;;;;7.57;77.82;;;;;
2024/02/21 16:35:27;;;;;;;7.9;3.5;;;;;;;7.45;77.98;;;;;
2024/02/21 16:45:24;;;;;;;7.9;3.5;;;;;;;7.4;78.16;;;;;
2024/02/21 16:56:24;;;;;;;7.9;3.5;;;;;;;7.22;78.74;;;;;
2024/02/21 17:07:24;;;;;;;7.6;4.5;;;;;;;7.19;78.46;;;;;
2024/02/21 17:18:24;;;;;;;7.6;4.5;;;;;;;7.12;78.48;;;;;
2024/02/21 17:28:24;;;;;;;7.6;4.5;;;;;;;6.98;78.62;;;;;
2024/02/21 17:38:25;;;;;;;8.2;4.4;;;;;;;6.78;78.4;;;;;
2024/02/21 17:49:24;;;;;;;8.2;4.4;;;;;;;6.57;78.51;;;;;
2024/02/21 17:59:24;;;;;;;8.2;4.4;;;;;;;6.47;78.33;;;;;
2024/02/21 18:10:24;;;;;;;6.1;3.4;;;;;;;6.23;78.79;;;;;
2024/02/21 18:21:24;;;;;;;6.1;3.4;;;;;;;6.07;78.91;;;;;
2024/02/21 18:32:24;;;;;;;6.3;2.9;;;;;;;5.96;79.07;;;;;
2024/02/21 18:43:24;;;;;;;6.3;2.9;;;;;;;5.85;79.25;;;;;
2024/02/21 18:54:24;;;;;;;6.3;2.9;;;;;;;5.71;79.29;;;;;
2024/02/21 19:05:24;;;;;;;7.4;4.1;;;;;;;5.61;80.03;;;;;
2024/02/21 19:16:25;;;;;;;7.4;4.1;;;;;;;5.53;80.28;;;;;
2024/02/21 19:27:24;;;;;;;7.4;4.1;;;;;;;5.39;81.08;;;;;
2024/02/21 19:38:25;;;;;;;6.6;3.9;;;;;;;5.45;81.25;;;;;
2024/02/21 19:49:24;;;;;;;6.6;3.9;;;;;;;5.43;81.45;;;;;
2024/02/21 19:59:24;;;;;;;6.6;3.9;;;;;;;5.43;81.41;;;;;
2024/02/21 20:10:24;;;;;;;8.5;4.5;;;;;;;5.35;81.32;;;;;
2024/02/21 20:20:24;;;;;;;8.5;4.5;;;;;;;5.32;81.72;;;;;
2024/02/21 20:31:25;;;;;;;11.6;4.9;;;;;;;5.37;81.99;;;;;
2024/02/21 20:41:24;;;;;;;11.6;4.9;;;;;;;5.37;82.06;;;;;
2024/02/21 20:52:24;;;;;;;11.6;4.9;;;;;;;5.37;81.99;;;;;
2024/02/21 21:03:24;;;;;;;10.5;4;;;;;;;5.36;81.76;;;;;
2024/02/21 21:13:24;;;;;;;10.5;4;;;;;;;5.3;81.93;;;;;
2024/02/21 21:24:24;;;;;;;10.5;4;;;;;;;5.38;81.46;;;;;
2024/02/21 21:34:24;;;;;;;7.7;4.3;;;;;;;5.49;81.27;;;;;
2024/02/21 21:44:24;;;;;;;7.7;4.3;;;;;;;5.64;80.61;;;;;
2024/02/21 21:55:24;;;;;;;7.7;4.3;;;;;;;5.72;80.47;;;;;
2024/02/21 22:06:24;;;;;;;7.3;4;;;;;;;5.75;79.93;;;;;
2024/02/21 22:16:24;;;;;;;7.3;4;;;;;;;5.7;79.93;;;;;
2024/02/21 22:27:27;;;;;;;7.3;4;;;;;;;5.64;80.18;;;;;
2024/02/21 22:38:24;;;;;;;7;3.6;;;;;;;5.52;80.17;;;;;
2024/02/21 22:48:24;;;;;;;7;3.6;;;;;;;5.32;80.3;;;;;
2024/02/21 22:59:24;;;;;;;7;3.6;;;;;;;5.2;80.1;;;;;
2024/02/21 23:09:24;;;;;;;5.8;2.6;;;;;;;5.03;81.09;;;;;
2024/02/21 23:19:24;;;;;;;5.8;2.6;;;;;;;5.05;81.45;;;;;
2024/02/21 23:30:25;;;;;;;6.6;3.3;;;;;;;4.95;81.43;;;;;
2024/02/21 23:40:24;;;;;;;6.6;3.3;;;;;;;4.74;81.07;;;;;
2024/02/21 23:50:24;;;;;;;6.6;3.3;;;;;;;4.51;81.14;;;;;
